METAR

TAF

 




Curitiba / Bacacheri, PR - SBBI


29 de Julho de 2014 às 12:00 (UTC)


Tempo:

Céu parcialmente nublado

Temperatura:

12ºC

Umidade Relativa:

94%

Localização:
Ajuste do Altímetro:

1031 hPa

Visibilidade Horizontal Predominante:

> 10 Km

Direção e Velocidade do Vento:

060° 14,82 Km/h


Observação Meteorológica:

METAR SBBI 291200Z 06008KT 9999 BKN005 BKN015 12/11 Q1031=